Lindsey Foss — WCC9031 — position and weather

sailwx.info

Track history (hours):
 
Tides and Currents Weather Stations Pressure Air Temp Water Temp Dewpoint Dewpoint Depression Visibility Wind Speed Wind Dir Waves Ship Positions

Lindsey Foss

Owner: FOSS MARITIME CO, SEATTLE, WA. More information available from US FCC via Universal Licensing System and Coast Guard Vessel Documentation Center.

Last reported at 2017-Dec-11 17:00 UTC. Time now 2017-Dec-13 18:59 UTC.
Position N 48°31' W 122°36'.

Length 51 m; draft 7 m.

Type: Tug. MMSI: 366767150.

Date/timePositionNaut miles runAvg speedWind from/ knotsBaromVisibWave heightAir tempDewpointWater temp
2017-Dec-11 17:00N 48°31' W 122°36'0 0.0
2017-Dec-11 16:30N 48°31' W 122°36'0 0.0
2017-Dec-11 16:00N 48°31' W 122°36'0 0.0
2017-Dec-11 15:30N 48°31' W 122°36'0 0.0
2017-Dec-11 15:00N 48°31' W 122°36'0 0.0
2017-Dec-11 14:30N 48°31' W 122°36'0 0.0
2017-Dec-11 13:54N 48°31' W 122°36'0 0.0
2017-Dec-11 13:30N 48°31' W 122°36'0 0.0
2017-Dec-11 13:00N 48°31' W 122°36'0 0.0
2017-Dec-11 12:30N 48°31' W 122°36'0 0.0
2017-Dec-11 11:48N 48°31' W 122°36'0 0.0
2017-Dec-11 11:30N 48°31' W 122°36'0 0.0
2017-Dec-11 11:00N 48°31' W 122°36'0 0.0
2017-Dec-11 10:30N 48°31' W 122°36'0 0.0
2017-Dec-11 10:00N 48°31' W 122°36'0 0.0
2017-Dec-11 09:24N 48°31' W 122°36'0 0.0
2017-Dec-11 09:00N 48°31' W 122°36'0 1.0
2017-Dec-11 08:30N 48°31' W 122°35'0 0.4
2017-Dec-11 08:00N 48°31' W 122°35'0 0.1
2017-Dec-11 07:30N 48°31' W 122°35'0 1.0
2017-Dec-11 07:00N 48°31' W 122°34'0 0.0
2017-Dec-11 06:30N 48°31' W 122°34'2 3.9
2017-Dec-11 06:00N 48°31' W 122°37'3 5.3
2017-Dec-11 05:30N 48°31' W 122°33'0 0.1
2017-Dec-11 05:00N 48°31' W 122°33'0 0.0
2017-Dec-11 04:30N 48°31' W 122°33'0 0.0
2017-Dec-11 04:00N 48°31' W 122°33'0 0.1
2017-Dec-11 03:30N 48°31' W 122°33'0 0.1
2017-Dec-11 03:00N 48°31' W 122°33'0 0.1
2017-Dec-11 02:30N 48°31' W 122°33'0 0.0
2017-Dec-11 02:00N 48°31' W 122°33'0 0.0
2017-Dec-11 01:30N 48°31' W 122°33'0 0.0
2017-Dec-11 01:00N 48°31' W 122°33'0 0.0
2017-Dec-11 00:30N 48°31' W 122°33'0 0.1
2017-Dec-10 23:58N 48°31' W 122°33'0 0.0
2017-Dec-10 23:30N 48°31' W 122°33'0 0.0
2017-Dec-10 23:00N 48°31' W 122°33'0 0.0
2017-Dec-10 22:30N 48°31' W 122°33'0 0.0
2017-Dec-10 22:00N 48°31' W 122°33'0 0.0
2017-Dec-10 21:30N 48°31' W 122°33'0 0.1
2017-Dec-10 21:00N 48°31' W 122°33'0 0.0
2017-Dec-10 20:30N 48°31' W 122°33'0 0.1
2017-Dec-10 20:00N 48°31' W 122°33'0 0.0
2017-Dec-10 19:30N 48°31' W 122°33'0 0.0
2017-Dec-10 19:00N 48°31' W 122°33'0 0.0
2017-Dec-10 18:30N 48°31' W 122°33'0 0.0
2017-Dec-10 18:00N 48°31' W 122°33'0 0.0
2017-Dec-10 17:30N 48°31' W 122°33'0 0.0
2017-Dec-10 17:00N 48°31' W 122°33'0 0.0
2017-Dec-10 16:30N 48°31' W 122°33'0 0.0
2017-Dec-10 16:00N 48°31' W 122°33'0 0.0
2017-Dec-10 15:30N 48°31' W 122°33'0 0.0
2017-Dec-10 15:00N 48°31' W 122°33'0 0.0
2017-Dec-10 14:30N 48°31' W 122°33'2 3.2
2017-Dec-10 14:00N 48°31' W 122°35'1 1.6
2017-Dec-10 13:30N 48°31' W 122°34'2 3.3
2017-Dec-10 13:00N 48°33' W 122°34'3 6.7
2017-Dec-10 12:30N 48°36' W 122°35'3 6.1
2017-Dec-10 12:00N 48°38' W 122°39'4 7.2
2017-Dec-10 11:30N 48°40' W 122°43'612.1
2017-Dec-10 11:00N 48°46' W 122°46'4 7.3
2017-Dec-10 10:30N 48°50' W 122°44'2 1.0
2017-Dec-10 09:00N 48°48' W 122°44'5 9.4
2017-Dec-10 08:28N 48°43' W 122°44'4 9.1
2017-Dec-10 08:00N 48°40' W 122°40'4 8.7
2017-Dec-10 07:31N 48°39' W 122°34'510.0
2017-Dec-10 07:00N 48°44' W 122°31'1 0.2
2017-Dec-09 23:48N 48°45' W 122°30'0 0.0
2017-Dec-09 22:20N 48°45' W 122°30'3 8.8
2017-Dec-09 22:00N 48°42' W 122°32'5 9.8
2017-Dec-09 21:30N 48°38' W 122°36'611.2
2017-Dec-09 21:00N 48°42' W 122°43'611.3
2017-Dec-09 20:30N 48°47' W 122°44'1 0.5
2017-Dec-09 19:03N 48°48' W 122°45'0 0.7
2017-Dec-09 18:54N 48°48' W 122°45'1 2.4
2017-Dec-09 18:30N 48°49' W 122°44'0 0.7
2017-Dec-09 17:55N 48°49' W 122°43'0 0.0
2017-Dec-09 17:28N 48°49' W 122°43'0 0.0
2017-Dec-09 16:52N 48°49' W 122°43'0 0.0
2017-Dec-09 16:25N 48°49' W 122°43'0 0.0
2017-Dec-09 15:58N 48°49' W 122°43'0 0.0
2017-Dec-09 15:28N 48°49' W 122°43'0 0.0
2017-Dec-09 14:55N 48°49' W 122°43'0 0.0
2017-Dec-09 14:25N 48°49' W 122°43'0 0.0
2017-Dec-09 13:58N 48°49' W 122°43'0 0.0
2017-Dec-09 13:13N 48°49' W 122°43'0 0.0
2017-Dec-09 12:55N 48°49' W 122°43'0 0.0
2017-Dec-09 09:19N 48°49' W 122°43'0 0.0
2017-Dec-09 04:59N 48°49' W 122°43'5 7.7
2017-Dec-09 04:21N 48°44' W 122°44'410.6
2017-Dec-09 04:00N 48°41' W 122°42'510.3
2017-Dec-09 03:31N 48°37' W 122°37'510.4
2017-Dec-09 03:00N 48°32' W 122°34'2 4.3
2017-Dec-09 02:31N 48°31' W 122°37'1 1.1
2017-Dec-09 02:00N 48°31' W 122°38'2 4.1
2017-Dec-09 01:30N 48°31' W 122°35'0 0.2
2017-Dec-09 01:00N 48°31' W 122°35'0 0.1
2017-Dec-09 00:30N 48°31' W 122°35'0 0.8
2017-Dec-09 00:00N 48°31' W 122°35'0 0.6
2017-Dec-08 23:30N 48°31' W 122°36'0 0.0
2017-Dec-08 23:00N 48°31' W 122°36'0 0.0
2017-Dec-08 22:30N 48°31' W 122°36'0 0.0
2017-Dec-08 22:00N 48°31' W 122°36'0 0.0
2017-Dec-08 21:30N 48°31' W 122°36'1 1.2
2017-Dec-08 21:00N 48°31' W 122°36'4 7.3
2017-Dec-08 20:30N 48°31' W 122°42'4 7.9
2017-Dec-08 20:00N 48°28' W 122°45'5 9.0
2017-Dec-08 19:30N 48°24' W 122°49'5 9.7
2017-Dec-08 19:00N 48°21' W 122°55'510.1
2017-Dec-08 18:30N 48°18' W 123°01'610.1
2017-Dec-08 17:54N 48°15' W 123°09'410.2
2017-Dec-08 17:29N 48°13' W 123°14'510.6
2017-Dec-08 17:00N 48°10' W 123°20'5 9.2
2017-Dec-08 16:30N 48°08' W 123°26'0 0.1
2017-Dec-08 15:58N 48°08' W 123°26'0 0.0
2017-Dec-08 15:28N 48°08' W 123°26'0 0.0
2017-Dec-08 14:58N 48°08' W 123°26'0 0.0
2017-Dec-08 14:28N 48°08' W 123°26'0 0.0
2017-Dec-08 13:55N 48°08' W 123°26'0 0.0
2017-Dec-08 13:28N 48°08' W 123°26'0 0.0
2017-Dec-08 12:58N 48°08' W 123°26'0 0.0
2017-Dec-08 12:28N 48°08' W 123°26'0 0.0
2017-Dec-08 11:58N 48°08' W 123°26'0 0.0
2017-Dec-08 11:28N 48°08' W 123°26'0 0.0
2017-Dec-08 10:58N 48°08' W 123°26'0 0.0
2017-Dec-08 10:19N 48°08' W 123°26'0 0.0
2017-Dec-08 09:58N 48°08' W 123°26'0 0.1
2017-Dec-08 09:31N 48°08' W 123°26'5 9.9
2017-Dec-08 09:00N 48°09' W 123°19'612.0
2017-Dec-08 08:31N 48°13' W 123°12'611.5
2017-Dec-08 08:00N 48°17' W 123°06'714.5
2017-Dec-08 07:30N 48°21' W 122°57'612.8
2017-Dec-08 07:00N 48°24' W 122°48'612.8
2017-Dec-08 06:30N 48°30' W 122°43'5 9.3
2017-Dec-08 06:01N 48°31' W 122°37'2 4.1
2017-Dec-08 05:31N 48°31' W 122°34'0 0.0
2017-Dec-08 05:00N 48°31' W 122°34'0 0.1
2017-Dec-08 04:31N 48°31' W 122°34'0 0.7
2017-Dec-08 04:00N 48°31' W 122°35'1 1.3
2017-Dec-08 03:31N 48°31' W 122°35'0 0.1
2017-Dec-08 03:00N 48°31' W 122°35'1 1.2
2017-Dec-08 02:30N 48°31' W 122°36'0 0.0
2017-Dec-08 01:57N 48°31' W 122°36'0 0.0
2017-Dec-08 01:27N 48°31' W 122°36'0 0.0
2017-Dec-08 00:57N 48°31' W 122°36'0 0.0
2017-Dec-08 00:21N 48°31' W 122°36'0 0.0
2017-Dec-07 23:57N 48°31' W 122°36'0 0.0
2017-Dec-07 23:03N 48°31' W 122°36'0 0.0
2017-Dec-07 22:57N 48°31' W 122°36'0 0.1
2017-Dec-07 22:27N 48°31' W 122°36'0 0.1
2017-Dec-07 21:57N 48°31' W 122°36'0 0.0
2017-Dec-07 21:21N 48°31' W 122°36'0 0.0
2017-Dec-07 20:57N 48°31' W 122°36'0 0.0
2017-Dec-07 20:27N 48°31' W 122°36'0 0.0
2017-Dec-07 19:57N 48°31' W 122°36'0 0.0
2017-Dec-07 19:27N 48°31' W 122°36'0 0.0
2017-Dec-07 18:57N 48°31' W 122°36'0 0.0
2017-Dec-07 18:27N 48°31' W 122°36'0 0.0
2017-Dec-07 17:57N 48°31' W 122°36'0 0.0
2017-Dec-07 17:27N 48°31' W 122°36'0 0.1
2017-Dec-07 16:57N 48°31' W 122°36'0 0.0
2017-Dec-07 16:27N 48°31' W 122°36'0 0.1
2017-Dec-07 15:57N 48°31' W 122°36'0 0.0
2017-Dec-07 15:09N 48°31' W 122°36'0 0.2
2017-Dec-07 14:57N 48°31' W 122°36'0 0.1
2017-Dec-07 14:27N 48°31' W 122°36'0 0.0
2017-Dec-07 13:57N 48°31' W 122°36'0 0.0
2017-Dec-07 13:27N 48°31' W 122°36'0 0.0
2017-Dec-07 12:57N 48°31' W 122°36'0 0.0
2017-Dec-07 12:27N 48°31' W 122°36'0 0.0
2017-Dec-07 11:57N 48°31' W 122°36'0 0.1
2017-Dec-07 11:27N 48°31' W 122°36'0 0.0
2017-Dec-07 10:57N 48°31' W 122°36'0 0.0
2017-Dec-07 10:27N 48°31' W 122°36'0 0.0
2017-Dec-07 09:57N 48°31' W 122°36'0 0.0
2017-Dec-07 09:27N 48°31' W 122°36'0 0.1
2017-Dec-07 08:57N 48°31' W 122°36'0 0.0
2017-Dec-07 08:27N 48°31' W 122°36'0 0.0
2017-Dec-07 07:51N 48°31' W 122°36'0 0.0
2017-Dec-07 07:27N 48°31' W 122°36'0 0.0
2017-Dec-07 06:57N 48°31' W 122°36'0 0.1
2017-Dec-07 06:27N 48°31' W 122°36'1 1.9
2017-Dec-07 06:00N 48°32' W 122°35'5 9.8
2017-Dec-07 05:30N 48°36' W 122°37'510.8
2017-Dec-07 05:00N 48°41' W 122°41'611.7
2017-Dec-07 04:30N 48°46' W 122°44'510.1
2017-Dec-07 03:58N 48°52' W 122°45'0 0.0
2017-Dec-07 03:30N 48°52' W 122°45'1 1.0
2017-Dec-07 02:58N 48°51' W 122°45'2 4.8
2017-Dec-07 02:29N 48°49' W 122°45'4 8.9
2017-Dec-07 02:00N 48°45' W 122°45'5 9.9
2017-Dec-07 01:30N 48°40' W 122°42'510.5
2017-Dec-07 01:00N 48°35' W 122°45'510.6
2017-Dec-07 00:30N 48°30' W 122°44'5 9.3
2017-Dec-07 00:00N 48°25' W 122°47'612.3
2017-Dec-06 23:30N 48°22' W 122°54'913.4
2017-Dec-06 22:49N 48°17' W 123°05'2 6.4
2017-Dec-06 22:29N 48°16' W 123°08'1 2.4
2017-Dec-06 22:01N 48°16' W 123°07'510.2
2017-Dec-06 21:29N 48°20' W 123°00'510.4
2017-Dec-06 21:00N 48°22' W 122°54'  
2017-Dec-04 10:05N 48°31' W 122°36'0 0.0
2017-Dec-04 09:59N 48°31' W 122°36'0 0.0
2017-Dec-04 09:23N 48°31' W 122°36'0 0.1
2017-Dec-04 08:59N 48°31' W 122°36'0 0.1
2017-Dec-04 08:23N 48°31' W 122°36'0 0.1
2017-Dec-04 08:01N 48°31' W 122°36'1 2.1
2017-Dec-04 07:31N 48°30' W 122°34'3 6.3
2017-Dec-04 07:00N 48°34' W 122°35'510.3
2017-Dec-04 06:31N 48°38' W 122°39'611.4
2017-Dec-04 06:00N 48°41' W 122°46'510.3
2017-Dec-04 05:30N 48°45' W 122°52'1 0.1
2017-Dec-03 20:54N 48°46' W 122°51'410.6
2017-Dec-03 20:30N 48°48' W 122°46'2 1.5
2017-Dec-03 19:10N 48°49' W 122°44'5 3.4
2017-Dec-03 17:38N 48°44' W 122°44'1 5.2
2017-Dec-03 17:30N 48°43' W 122°44'4 8.7
2017-Dec-03 17:00N 48°40' W 122°40'5 9.5
2017-Dec-03 16:30N 48°36' W 122°36'5 9.3
2017-Dec-03 16:00N 48°31' W 122°34'1 1.4
2017-Dec-03 15:30N 48°31' W 122°34'0 0.4
2017-Dec-03 15:00N 48°31' W 122°34'2 3.3
2017-Dec-03 14:30N 48°32' W 122°36'2 4.8
2017-Dec-03 14:00N 48°31' W 122°40'1 0.9
2017-Dec-03 13:25N 48°32' W 122°40'0 0.1
2017-Dec-03 13:01N 48°32' W 122°39'0 0.0
2017-Dec-03 12:28N 48°32' W 122°39'0 0.0
2017-Dec-03 12:01N 48°32' W 122°39'0 0.0
2017-Dec-03 11:28N 48°32' W 122°39'0 0.0
2017-Dec-03 10:58N 48°32' W 122°39'0 0.0
2017-Dec-03 10:28N 48°32' W 122°39'0 0.0
2017-Dec-03 09:58N 48°32' W 122°39'0 0.0
2017-Dec-03 09:31N 48°32' W 122°39'0 0.0
2017-Dec-03 08:58N 48°32' W 122°39'2 3.8
2017-Dec-03 08:31N 48°33' W 122°40'4 7.7
2017-Dec-03 08:00N 48°37' W 122°38'5 9.6
2017-Dec-03 07:30N 48°41' W 122°33'4 8.9
2017-Dec-03 07:00N 48°45' W 122°30'0 0.0
2017-Dec-03 05:23N 48°45' W 122°30'0 0.0
2017-Dec-03 03:53N 48°45' W 122°30'0 0.0
2017-Dec-03 03:11N 48°45' W 122°30'0 0.0
2017-Dec-03 02:53N 48°45' W 122°30'0 0.0
2017-Dec-03 02:29N 48°45' W 122°30'0 0.0
2017-Dec-03 01:59N 48°45' W 122°30'0 0.0
2017-Dec-03 01:29N 48°45' W 122°30'0 0.0
2017-Dec-03 00:53N 48°45' W 122°30'0 0.0
2017-Dec-02 23:20N 48°45' W 122°30'0 0.0
2017-Dec-02 22:50N 48°45' W 122°30'0 0.0
2017-Dec-02 18:05N 48°45' W 122°30'0 0.0
2017-Dec-02 17:59N 48°45' W 122°30'0 0.0
2017-Dec-02 17:23N 48°45' W 122°30'1 2.4
2017-Dec-02 17:00N 48°44' W 122°31'5 9.6
2017-Dec-02 16:30N 48°40' W 122°33'5 9.9
2017-Dec-02 16:01N 48°35' W 122°34'4 7.3
2017-Dec-02 15:30N 48°31' W 122°36'0 0.1
2017-Dec-02 15:00N 48°31' W 122°36'0 0.1
2017-Dec-02 14:31N 48°31' W 122°36'0 0.1
2017-Dec-02 14:00N 48°31' W 122°36'1 1.6
2017-Dec-02 13:30N 48°31' W 122°38'1 2.5
2017-Dec-02 13:00N 48°31' W 122°39'1 1.4
2017-Dec-02 12:30N 48°32' W 122°40'3 5.7
2017-Dec-02 12:00N 48°34' W 122°40'5 9.4
2017-Dec-02 11:31N 48°39' W 122°40'611.1
2017-Dec-02 11:00N 48°44' W 122°44'611.1
2017-Dec-02 10:30N 48°50' W 122°45'2 2.8
2017-Dec-02 09:44N 48°52' W 122°46'2 1.6
2017-Dec-02 08:45N 48°50' W 122°45'311.4
2017-Dec-02 08:30N 48°47' W 122°45'611.5
2017-Dec-02 08:00N 48°42' W 122°43'510.7
2017-Dec-02 07:30N 48°37' W 122°39'611.2
2017-Dec-02 07:00N 48°32' W 122°40'4 7.5
2017-Dec-02 06:30N 48°31' W 122°35'1 1.6
2017-Dec-02 06:00N 48°31' W 122°35'0 0.4
2017-Dec-02 05:30N 48°31' W 122°35'0 0.9
2017-Dec-02 04:59N 48°31' W 122°36'0 0.0
2017-Dec-02 04:29N 48°31' W 122°36'0 0.0
2017-Dec-02 03:52N 48°31' W 122°36'0 0.0
2017-Dec-02 03:28N 48°31' W 122°36'0 0.0
2017-Dec-02 02:58N 48°31' W 122°36'0 0.0
2017-Dec-02 02:29N 48°31' W 122°36'0 0.0
2017-Dec-02 01:52N 48°31' W 122°36'0 0.0
2017-Dec-02 01:29N 48°31' W 122°36'0 0.1
2017-Dec-02 00:58N 48°31' W 122°36'0 0.0
2017-Dec-02 00:29N 48°31' W 122°36'0 0.0
2017-Dec-01 23:53N 48°31' W 122°36'0 0.0
2017-Dec-01 23:29N 48°31' W 122°36'0 0.0
2017-Dec-01 22:59N 48°31' W 122°36'0 0.0
2017-Dec-01 22:29N 48°31' W 122°36'0 0.0
2017-Dec-01 21:58N 48°31' W 122°36'0 0.0
2017-Dec-01 21:28N 48°31' W 122°36'0 0.0
2017-Dec-01 21:00N 48°31' W 122°36'1 1.6
2017-Dec-01 20:30N 48°31' W 122°37'0 0.0
2017-Dec-01 20:00N 48°31' W 122°37'0 0.0
2017-Dec-01 19:30N 48°31' W 122°37'0 0.0
2017-Dec-01 19:00N 48°31' W 122°37'0 0.0
2017-Dec-01 18:30N 48°31' W 122°37'0 0.0
2017-Dec-01 18:00N 48°31' W 122°37'0 0.0
2017-Dec-01 17:30N 48°31' W 122°37'0 0.0
2017-Dec-01 17:00N 48°31' W 122°37'  
Track history (hours):
 
Tides and Currents Weather Stations Pressure Air Temp Water Temp Dewpoint Dewpoint Depression Visibility Wind Speed Wind Dir Waves Ship Positions

Lindsey Foss

Owner: FOSS MARITIME CO, SEATTLE, WA. More information available from US FCC via Universal Licensing System and Coast Guard Vessel Documentation Center.

Last reported at 2017-Dec-11 17:00 UTC. Time now 2017-Dec-13 18:59 UTC.
Position N 48°31' W 122°36'.

Length 51 m; draft 7 m.

Type: Tug. MMSI: 366767150.

Date/timePositionNaut miles runAvg speedWind from/ knotsBaromVisibWave heightAir tempDewpointWater temp
2017-Dec-11 17:00N 48°31' W 122°36'0 0.0
2017-Dec-11 16:30N 48°31' W 122°36'0 0.0
2017-Dec-11 16:00N 48°31' W 122°36'0 0.0
2017-Dec-11 15:30N 48°31' W 122°36'0 0.0
2017-Dec-11 15:00N 48°31' W 122°36'0 0.0
2017-Dec-11 14:30N 48°31' W 122°36'0 0.0
2017-Dec-11 13:54N 48°31' W 122°36'0 0.0
2017-Dec-11 13:30N 48°31' W 122°36'0 0.0
2017-Dec-11 13:00N 48°31' W 122°36'0 0.0
2017-Dec-11 12:30N 48°31' W 122°36'0 0.0
2017-Dec-11 11:48N 48°31' W 122°36'0 0.0
2017-Dec-11 11:30N 48°31' W 122°36'0 0.0
2017-Dec-11 11:00N 48°31' W 122°36'0 0.0
2017-Dec-11 10:30N 48°31' W 122°36'0 0.0
2017-Dec-11 10:00N 48°31' W 122°36'0 0.0
2017-Dec-11 09:24N 48°31' W 122°36'0 0.0
2017-Dec-11 09:00N 48°31' W 122°36'0 1.0
2017-Dec-11 08:30N 48°31' W 122°35'0 0.4
2017-Dec-11 08:00N 48°31' W 122°35'0 0.1
2017-Dec-11 07:30N 48°31' W 122°35'0 1.0
2017-Dec-11 07:00N 48°31' W 122°34'0 0.0
2017-Dec-11 06:30N 48°31' W 122°34'2 3.9
2017-Dec-11 06:00N 48°31' W 122°37'3 5.3
2017-Dec-11 05:30N 48°31' W 122°33'0 0.1
2017-Dec-11 05:00N 48°31' W 122°33'0 0.0
2017-Dec-11 04:30N 48°31' W 122°33'0 0.0
2017-Dec-11 04:00N 48°31' W 122°33'0 0.1
2017-Dec-11 03:30N 48°31' W 122°33'0 0.1
2017-Dec-11 03:00N 48°31' W 122°33'0 0.1
2017-Dec-11 02:30N 48°31' W 122°33'0 0.0
2017-Dec-11 02:00N 48°31' W 122°33'0 0.0
2017-Dec-11 01:30N 48°31' W 122°33'0 0.0
2017-Dec-11 01:00N 48°31' W 122°33'0 0.0
2017-Dec-11 00:30N 48°31' W 122°33'0 0.1
2017-Dec-10 23:58N 48°31' W 122°33'0 0.0
2017-Dec-10 23:30N 48°31' W 122°33'0 0.0
2017-Dec-10 23:00N 48°31' W 122°33'0 0.0
2017-Dec-10 22:30N 48°31' W 122°33'0 0.0
2017-Dec-10 22:00N 48°31' W 122°33'0 0.0
2017-Dec-10 21:30N 48°31' W 122°33'0 0.1
2017-Dec-10 21:00N 48°31' W 122°33'0 0.0
2017-Dec-10 20:30N 48°31' W 122°33'0 0.1
2017-Dec-10 20:00N 48°31' W 122°33'0 0.0
2017-Dec-10 19:30N 48°31' W 122°33'0 0.0
2017-Dec-10 19:00N 48°31' W 122°33'0 0.0
2017-Dec-10 18:30N 48°31' W 122°33'0 0.0
2017-Dec-10 18:00N 48°31' W 122°33'0 0.0
2017-Dec-10 17:30N 48°31' W 122°33'0 0.0
2017-Dec-10 17:00N 48°31' W 122°33'0 0.0
2017-Dec-10 16:30N 48°31' W 122°33'0 0.0
2017-Dec-10 16:00N 48°31' W 122°33'0 0.0
2017-Dec-10 15:30N 48°31' W 122°33'0 0.0
2017-Dec-10 15:00N 48°31' W 122°33'0 0.0
2017-Dec-10 14:30N 48°31' W 122°33'2 3.2
2017-Dec-10 14:00N 48°31' W 122°35'1 1.6
2017-Dec-10 13:30N 48°31' W 122°34'2 3.3
2017-Dec-10 13:00N 48°33' W 122°34'3 6.7
2017-Dec-10 12:30N 48°36' W 122°35'3 6.1
2017-Dec-10 12:00N 48°38' W 122°39'4 7.2
2017-Dec-10 11:30N 48°40' W 122°43'612.1
2017-Dec-10 11:00N 48°46' W 122°46'4 7.3
2017-Dec-10 10:30N 48°50' W 122°44'2 1.0
2017-Dec-10 09:00N 48°48' W 122°44'5 9.4
2017-Dec-10 08:28N 48°43' W 122°44'4 9.1
2017-Dec-10 08:00N 48°40' W 122°40'4 8.7
2017-Dec-10 07:31N 48°39' W 122°34'510.0
2017-Dec-10 07:00N 48°44' W 122°31'1 0.2
2017-Dec-09 23:48N 48°45' W 122°30'0 0.0
2017-Dec-09 22:20N 48°45' W 122°30'3 8.8
2017-Dec-09 22:00N 48°42' W 122°32'5 9.8
2017-Dec-09 21:30N 48°38' W 122°36'611.2
2017-Dec-09 21:00N 48°42' W 122°43'611.3
2017-Dec-09 20:30N 48°47' W 122°44'1 0.5
2017-Dec-09 19:03N 48°48' W 122°45'0 0.7
2017-Dec-09 18:54N 48°48' W 122°45'1 2.4
2017-Dec-09 18:30N 48°49' W 122°44'0 0.7
2017-Dec-09 17:55N 48°49' W 122°43'0 0.0
2017-Dec-09 17:28N 48°49' W 122°43'0 0.0
2017-Dec-09 16:52N 48°49' W 122°43'0 0.0
2017-Dec-09 16:25N 48°49' W 122°43'0 0.0
2017-Dec-09 15:58N 48°49' W 122°43'0 0.0
2017-Dec-09 15:28N 48°49' W 122°43'0 0.0
2017-Dec-09 14:55N 48°49' W 122°43'0 0.0
2017-Dec-09 14:25N 48°49' W 122°43'0 0.0
2017-Dec-09 13:58N 48°49' W 122°43'0 0.0
2017-Dec-09 13:13N 48°49' W 122°43'0 0.0
2017-Dec-09 12:55N 48°49' W 122°43'0 0.0
2017-Dec-09 09:19N 48°49' W 122°43'0 0.0
2017-Dec-09 04:59N 48°49' W 122°43'5 7.7
2017-Dec-09 04:21N 48°44' W 122°44'410.6
2017-Dec-09 04:00N 48°41' W 122°42'510.3
2017-Dec-09 03:31N 48°37' W 122°37'510.4
2017-Dec-09 03:00N 48°32' W 122°34'2 4.3
2017-Dec-09 02:31N 48°31' W 122°37'1 1.1
2017-Dec-09 02:00N 48°31' W 122°38'2 4.1
2017-Dec-09 01:30N 48°31' W 122°35'0 0.2
2017-Dec-09 01:00N 48°31' W 122°35'0 0.1
2017-Dec-09 00:30N 48°31' W 122°35'0 0.8
2017-Dec-09 00:00N 48°31' W 122°35'0 0.6
2017-Dec-08 23:30N 48°31' W 122°36'0 0.0
2017-Dec-08 23:00N 48°31' W 122°36'0 0.0
2017-Dec-08 22:30N 48°31' W 122°36'0 0.0
2017-Dec-08 22:00N 48°31' W 122°36'0 0.0
2017-Dec-08 21:30N 48°31' W 122°36'1 1.2
2017-Dec-08 21:00N 48°31' W 122°36'4 7.3
2017-Dec-08 20:30N 48°31' W 122°42'4 7.9
2017-Dec-08 20:00N 48°28' W 122°45'5 9.0
2017-Dec-08 19:30N 48°24' W 122°49'5 9.7
2017-Dec-08 19:00N 48°21' W 122°55'510.1
2017-Dec-08 18:30N 48°18' W 123°01'610.1
2017-Dec-08 17:54N 48°15' W 123°09'410.2
2017-Dec-08 17:29N 48°13' W 123°14'510.6
2017-Dec-08 17:00N 48°10' W 123°20'5 9.2
2017-Dec-08 16:30N 48°08' W 123°26'0 0.1
2017-Dec-08 15:58N 48°08' W 123°26'0 0.0
2017-Dec-08 15:28N 48°08' W 123°26'0 0.0
2017-Dec-08 14:58N 48°08' W 123°26'0 0.0
2017-Dec-08 14:28N 48°08' W 123°26'0 0.0
2017-Dec-08 13:55N 48°08' W 123°26'0 0.0
2017-Dec-08 13:28N 48°08' W 123°26'0 0.0
2017-Dec-08 12:58N 48°08' W 123°26'0 0.0
2017-Dec-08 12:28N 48°08' W 123°26'0 0.0
2017-Dec-08 11:58N 48°08' W 123°26'0 0.0
2017-Dec-08 11:28N 48°08' W 123°26'0 0.0
2017-Dec-08 10:58N 48°08' W 123°26'0 0.0
2017-Dec-08 10:19N 48°08' W 123°26'0 0.0
2017-Dec-08 09:58N 48°08' W 123°26'0 0.1
2017-Dec-08 09:31N 48°08' W 123°26'5 9.9
2017-Dec-08 09:00N 48°09' W 123°19'612.0
2017-Dec-08 08:31N 48°13' W 123°12'611.5
2017-Dec-08 08:00N 48°17' W 123°06'714.5
2017-Dec-08 07:30N 48°21' W 122°57'612.8
2017-Dec-08 07:00N 48°24' W 122°48'612.8
2017-Dec-08 06:30N 48°30' W 122°43'5 9.3
2017-Dec-08 06:01N 48°31' W 122°37'2 4.1
2017-Dec-08 05:31N 48°31' W 122°34'0 0.0
2017-Dec-08 05:00N 48°31' W 122°34'0 0.1
2017-Dec-08 04:31N 48°31' W 122°34'0 0.7
2017-Dec-08 04:00N 48°31' W 122°35'1 1.3
2017-Dec-08 03:31N 48°31' W 122°35'0 0.1
2017-Dec-08 03:00N 48°31' W 122°35'1 1.2
2017-Dec-08 02:30N 48°31' W 122°36'0 0.0
2017-Dec-08 01:57N 48°31' W 122°36'0 0.0
2017-Dec-08 01:27N 48°31' W 122°36'0 0.0
2017-Dec-08 00:57N 48°31' W 122°36'0 0.0
2017-Dec-08 00:21N 48°31' W 122°36'0 0.0
2017-Dec-07 23:57N 48°31' W 122°36'0 0.0
2017-Dec-07 23:03N 48°31' W 122°36'0 0.0
2017-Dec-07 22:57N 48°31' W 122°36'0 0.1
2017-Dec-07 22:27N 48°31' W 122°36'0 0.1
2017-Dec-07 21:57N 48°31' W 122°36'0 0.0
2017-Dec-07 21:21N 48°31' W 122°36'0 0.0
2017-Dec-07 20:57N 48°31' W 122°36'0 0.0
2017-Dec-07 20:27N 48°31' W 122°36'0 0.0
2017-Dec-07 19:57N 48°31' W 122°36'0 0.0
2017-Dec-07 19:27N 48°31' W 122°36'0 0.0
2017-Dec-07 18:57N 48°31' W 122°36'0 0.0
2017-Dec-07 18:27N 48°31' W 122°36'0 0.0
2017-Dec-07 17:57N 48°31' W 122°36'0 0.0
2017-Dec-07 17:27N 48°31' W 122°36'0 0.1
2017-Dec-07 16:57N 48°31' W 122°36'0 0.0
2017-Dec-07 16:27N 48°31' W 122°36'0 0.1
2017-Dec-07 15:57N 48°31' W 122°36'0 0.0
2017-Dec-07 15:09N 48°31' W 122°36'0 0.2
2017-Dec-07 14:57N 48°31' W 122°36'0 0.1
2017-Dec-07 14:27N 48°31' W 122°36'0 0.0
2017-Dec-07 13:57N 48°31' W 122°36'0 0.0
2017-Dec-07 13:27N 48°31' W 122°36'0 0.0
2017-Dec-07 12:57N 48°31' W 122°36'0 0.0
2017-Dec-07 12:27N 48°31' W 122°36'0 0.0
2017-Dec-07 11:57N 48°31' W 122°36'0 0.1
2017-Dec-07 11:27N 48°31' W 122°36'0 0.0
2017-Dec-07 10:57N 48°31' W 122°36'0 0.0
2017-Dec-07 10:27N 48°31' W 122°36'0 0.0
2017-Dec-07 09:57N 48°31' W 122°36'0 0.0
2017-Dec-07 09:27N 48°31' W 122°36'0 0.1
2017-Dec-07 08:57N 48°31' W 122°36'0 0.0
2017-Dec-07 08:27N 48°31' W 122°36'0 0.0
2017-Dec-07 07:51N 48°31' W 122°36'0 0.0
2017-Dec-07 07:27N 48°31' W 122°36'0 0.0
2017-Dec-07 06:57N 48°31' W 122°36'0 0.1
2017-Dec-07 06:27N 48°31' W 122°36'1 1.9
2017-Dec-07 06:00N 48°32' W 122°35'5 9.8
2017-Dec-07 05:30N 48°36' W 122°37'510.8
2017-Dec-07 05:00N 48°41' W 122°41'611.7
2017-Dec-07 04:30N 48°46' W 122°44'510.1
2017-Dec-07 03:58N 48°52' W 122°45'0 0.0
2017-Dec-07 03:30N 48°52' W 122°45'1 1.0
2017-Dec-07 02:58N 48°51' W 122°45'2 4.8
2017-Dec-07 02:29N 48°49' W 122°45'4 8.9
2017-Dec-07 02:00N 48°45' W 122°45'5 9.9
2017-Dec-07 01:30N 48°40' W 122°42'510.5
2017-Dec-07 01:00N 48°35' W 122°45'510.6
2017-Dec-07 00:30N 48°30' W 122°44'5 9.3
2017-Dec-07 00:00N 48°25' W 122°47'612.3
2017-Dec-06 23:30N 48°22' W 122°54'913.4
2017-Dec-06 22:49N 48°17' W 123°05'2 6.4
2017-Dec-06 22:29N 48°16' W 123°08'1 2.4
2017-Dec-06 22:01N 48°16' W 123°07'510.2
2017-Dec-06 21:29N 48°20' W 123°00'510.4
2017-Dec-06 21:00N 48°22' W 122°54'  
2017-Dec-04 10:05N 48°31' W 122°36'0 0.0
2017-Dec-04 09:59N 48°31' W 122°36'0 0.0
2017-Dec-04 09:23N 48°31' W 122°36'0 0.1
2017-Dec-04 08:59N 48°31' W 122°36'0 0.1
2017-Dec-04 08:23N 48°31' W 122°36'0 0.1
2017-Dec-04 08:01N 48°31' W 122°36'1 2.1
2017-Dec-04 07:31N 48°30' W 122°34'3 6.3
2017-Dec-04 07:00N 48°34' W 122°35'510.3
2017-Dec-04 06:31N 48°38' W 122°39'611.4
2017-Dec-04 06:00N 48°41' W 122°46'510.3
2017-Dec-04 05:30N 48°45' W 122°52'1 0.1
2017-Dec-03 20:54N 48°46' W 122°51'410.6
2017-Dec-03 20:30N 48°48' W 122°46'2 1.5
2017-Dec-03 19:10N 48°49' W 122°44'5 3.4
2017-Dec-03 17:38N 48°44' W 122°44'1 5.2
2017-Dec-03 17:30N 48°43' W 122°44'4 8.7
2017-Dec-03 17:00N 48°40' W 122°40'5 9.5
2017-Dec-03 16:30N 48°36' W 122°36'5 9.3
2017-Dec-03 16:00N 48°31' W 122°34'1 1.4
2017-Dec-03 15:30N 48°31' W 122°34'0 0.4
2017-Dec-03 15:00N 48°31' W 122°34'2 3.3
2017-Dec-03 14:30N 48°32' W 122°36'2 4.8
2017-Dec-03 14:00N 48°31' W 122°40'1 0.9
2017-Dec-03 13:25N 48°32' W 122°40'0 0.1
2017-Dec-03 13:01N 48°32' W 122°39'0 0.0
2017-Dec-03 12:28N 48°32' W 122°39'0 0.0
2017-Dec-03 12:01N 48°32' W 122°39'0 0.0
2017-Dec-03 11:28N 48°32' W 122°39'0 0.0
2017-Dec-03 10:58N 48°32' W 122°39'0 0.0
2017-Dec-03 10:28N 48°32' W 122°39'0 0.0
2017-Dec-03 09:58N 48°32' W 122°39'0 0.0
2017-Dec-03 09:31N 48°32' W 122°39'0 0.0
2017-Dec-03 08:58N 48°32' W 122°39'2 3.8
2017-Dec-03 08:31N 48°33' W 122°40'4 7.7
2017-Dec-03 08:00N 48°37' W 122°38'5 9.6
2017-Dec-03 07:30N 48°41' W 122°33'4 8.9
2017-Dec-03 07:00N 48°45' W 122°30'0 0.0
2017-Dec-03 05:23N 48°45' W 122°30'0 0.0
2017-Dec-03 03:53N 48°45' W 122°30'0 0.0
2017-Dec-03 03:11N 48°45' W 122°30'0 0.0
2017-Dec-03 02:53N 48°45' W 122°30'0 0.0
2017-Dec-03 02:29N 48°45' W 122°30'0 0.0
2017-Dec-03 01:59N 48°45' W 122°30'0 0.0
2017-Dec-03 01:29N 48°45' W 122°30'0 0.0
2017-Dec-03 00:53N 48°45' W 122°30'0 0.0
2017-Dec-02 23:20N 48°45' W 122°30'0 0.0
2017-Dec-02 22:50N 48°45' W 122°30'0 0.0
2017-Dec-02 18:05N 48°45' W 122°30'0 0.0
2017-Dec-02 17:59N 48°45' W 122°30'0 0.0
2017-Dec-02 17:23N 48°45' W 122°30'1 2.4
2017-Dec-02 17:00N 48°44' W 122°31'5 9.6
2017-Dec-02 16:30N 48°40' W 122°33'5 9.9
2017-Dec-02 16:01N 48°35' W 122°34'4 7.3
2017-Dec-02 15:30N 48°31' W 122°36'0 0.1
2017-Dec-02 15:00N 48°31' W 122°36'0 0.1
2017-Dec-02 14:31N 48°31' W 122°36'0 0.1
2017-Dec-02 14:00N 48°31' W 122°36'1 1.6
2017-Dec-02 13:30N 48°31' W 122°38'1 2.5
2017-Dec-02 13:00N 48°31' W 122°39'1 1.4
2017-Dec-02 12:30N 48°32' W 122°40'3 5.7
2017-Dec-02 12:00N 48°34' W 122°40'5 9.4
2017-Dec-02 11:31N 48°39' W 122°40'611.1
2017-Dec-02 11:00N 48°44' W 122°44'611.1
2017-Dec-02 10:30N 48°50' W 122°45'2 2.8
2017-Dec-02 09:44N 48°52' W 122°46'2 1.6
2017-Dec-02 08:45N 48°50' W 122°45'311.4
2017-Dec-02 08:30N 48°47' W 122°45'611.5
2017-Dec-02 08:00N 48°42' W 122°43'510.7
2017-Dec-02 07:30N 48°37' W 122°39'611.2
2017-Dec-02 07:00N 48°32' W 122°40'4 7.5
2017-Dec-02 06:30N 48°31' W 122°35'1 1.6
2017-Dec-02 06:00N 48°31' W 122°35'0 0.4
2017-Dec-02 05:30N 48°31' W 122°35'0 0.9
2017-Dec-02 04:59N 48°31' W 122°36'0 0.0
2017-Dec-02 04:29N 48°31' W 122°36'0 0.0
2017-Dec-02 03:52N 48°31' W 122°36'0 0.0
2017-Dec-02 03:28N 48°31' W 122°36'0 0.0
2017-Dec-02 02:58N 48°31' W 122°36'0 0.0
2017-Dec-02 02:29N 48°31' W 122°36'0 0.0
2017-Dec-02 01:52N 48°31' W 122°36'0 0.0
2017-Dec-02 01:29N 48°31' W 122°36'0 0.1
2017-Dec-02 00:58N 48°31' W 122°36'0 0.0
2017-Dec-02 00:29N 48°31' W 122°36'0 0.0
2017-Dec-01 23:53N 48°31' W 122°36'0 0.0
2017-Dec-01 23:29N 48°31' W 122°36'0 0.0
2017-Dec-01 22:59N 48°31' W 122°36'0 0.0
2017-Dec-01 22:29N 48°31' W 122°36'0 0.0
2017-Dec-01 21:58N 48°31' W 122°36'0 0.0
2017-Dec-01 21:28N 48°31' W 122°36'0 0.0
2017-Dec-01 21:00N 48°31' W 122°36'1 1.6
2017-Dec-01 20:30N 48°31' W 122°37'0 0.0
2017-Dec-01 20:00N 48°31' W 122°37'0 0.0
2017-Dec-01 19:30N 48°31' W 122°37'0 0.0
2017-Dec-01 19:00N 48°31' W 122°37'0 0.0
2017-Dec-01 18:30N 48°31' W 122°37'0 0.0
2017-Dec-01 18:00N 48°31' W 122°37'0 0.0
2017-Dec-01 17:30N 48°31' W 122°37'0 0.0
2017-Dec-01 17:00N 48°31' W 122°37'  

Dump ship's entire track history